createdAt,value
2023-05-06T00:00:39.676Z,4.47
2023-05-06T00:02:11.562Z,4.65
2023-05-06T00:03:43.625Z,4.43
2023-05-06T00:05:18.701Z,5.13
2023-05-06T00:06:50.517Z,4.57
2023-05-06T00:08:22.341Z,4.88
2023-05-06T00:09:54.393Z,5.00
2023-05-06T00:11:26.650Z,7.15
2023-05-06T00:12:58.505Z,4.22
2023-05-06T00:14:30.738Z,5.88
2023-05-06T00:16:02.614Z,3.95
2023-05-06T00:17:34.516Z,4.30
2023-05-06T00:19:06.809Z,4.70
2023-05-06T00:20:38.649Z,4.00
2023-05-06T00:22:10.680Z,4.47
2023-05-06T00:23:42.478Z,3.80
2023-05-06T00:25:14.334Z,4.63
2023-05-06T00:26:46.341Z,4.75
2023-05-06T00:28:21.610Z,3.70
2023-05-06T00:29:53.457Z,4.57
2023-05-06T00:31:25.326Z,3.83
2023-05-06T00:32:57.360Z,4.82
2023-05-06T00:34:29.241Z,3.78
2023-05-06T00:36:01.222Z,4.00
2023-05-06T00:37:33.098Z,5.05
2023-05-06T00:39:06.218Z,3.85
2023-05-06T00:40:38.152Z,4.05
2023-05-06T00:42:09.997Z,5.05
2023-05-06T00:43:41.904Z,6.10
2023-05-06T00:45:13.734Z,3.50
2023-05-06T00:46:45.921Z,6.03
2023-05-06T00:48:18.279Z,5.38
2023-05-06T00:49:50.747Z,4.47
2023-05-06T00:55:59.807Z,4.75
2023-05-06T00:57:31.818Z,4.68
2023-05-06T00:59:03.688Z,4.55
2023-05-06T01:00:35.791Z,5.18
2023-05-06T01:02:07.676Z,3.78
2023-05-06T01:03:39.914Z,5.70
2023-05-06T01:05:12.468Z,4.78
2023-05-06T01:07:02.255Z,5.90
2023-05-06T01:08:49.968Z,4.25
2023-05-06T01:10:25.867Z,4.60
2023-05-06T01:12:21.497Z,4.95
2023-05-06T01:14:06.369Z,3.80
2023-05-06T01:15:50.397Z,4.72
2023-05-06T01:17:28.131Z,4.53
2023-05-06T01:19:02.037Z,5.38
2023-05-06T01:20:33.895Z,4.25
2023-05-06T01:22:07.506Z,4.10
2023-05-06T01:23:58.719Z,3.55
2023-05-06T01:25:32.428Z,4.15
2023-05-06T01:27:04.412Z,4.20
2023-05-06T01:28:37.511Z,4.00
2023-05-06T01:30:09.833Z,5.95
2023-05-06T01:31:48.304Z,4.95
2023-05-06T01:33:41.349Z,6.95
2023-05-06T01:35:33.026Z,4.38
2023-05-06T01:37:20.900Z,5.20
2023-05-06T01:39:03.593Z,4.70
2023-05-06T01:40:36.653Z,4.85
2023-05-06T01:42:10.261Z,4.93
2023-05-06T01:43:45.502Z,4.78
2023-05-06T01:45:19.902Z,5.60
2023-05-06T01:46:52.901Z,5.28
2023-05-06T01:48:28.168Z,4.53
2023-05-06T01:50:01.783Z,7.32
2023-05-06T01:51:34.427Z,5.72
2023-05-06T01:53:07.056Z,5.93
2023-05-06T01:54:40.469Z,6.05
2023-05-06T01:56:12.613Z,4.97
2023-05-06T01:57:44.448Z,5.70
2023-05-06T01:59:16.288Z,6.25
2023-05-06T02:00:48.104Z,6.82
2023-05-06T02:02:20.357Z,6.60
2023-05-06T02:03:52.401Z,5.40
2023-05-06T02:05:24.877Z,7.25
2023-05-06T02:07:00.540Z,5.45
2023-05-06T02:08:32.347Z,5.90
2023-05-06T02:10:06.258Z,5.53
2023-05-06T02:11:38.835Z,5.40
2023-05-06T02:13:12.503Z,4.93
2023-05-06T02:14:44.475Z,5.05
2023-05-06T02:16:16.613Z,6.50
2023-05-06T02:17:49.454Z,7.43
2023-05-06T02:19:21.450Z,5.32
2023-05-06T02:20:53.290Z,7.90
2023-05-06T02:22:25.117Z,5.45
2023-05-06T02:23:57.000Z,5.82
2023-05-06T02:25:29.626Z,7.15
2023-05-06T02:27:02.437Z,5.93
2023-05-06T02:28:34.741Z,6.43
2023-05-06T02:30:07.177Z,5.85
2023-05-06T02:31:39.000Z,7.28
2023-05-06T02:33:11.182Z,5.97
2023-05-06T02:34:43.000Z,6.70
2023-05-06T02:36:15.071Z,6.55
2023-05-06T02:37:46.878Z,7.35
2023-05-06T02:39:18.699Z,6.20
2023-05-06T02:40:50.716Z,6.07
2023-05-06T02:42:22.572Z,6.70
2023-05-06T02:43:54.420Z,5.75
2023-05-06T02:45:44.961Z,6.25
2023-05-06T02:47:35.589Z,6.38
2023-05-06T02:49:08.516Z,5.75
2023-05-06T02:50:40.379Z,6.80
2023-05-06T02:52:12.277Z,6.05
2023-05-06T02:53:44.091Z,7.45
2023-05-06T02:55:16.221Z,7.13
2023-05-06T02:56:48.130Z,6.22
2023-05-06T02:58:20.097Z,7.35
2023-05-06T02:59:51.937Z,6.35
2023-05-06T03:01:24.372Z,6.57
2023-05-06T03:02:56.476Z,5.78
2023-05-06T03:04:28.425Z,7.75
2023-05-06T03:06:00.338Z,6.43
2023-05-06T03:07:32.211Z,5.70
2023-05-06T03:09:05.222Z,11.35
2023-05-06T03:10:37.174Z,9.10
2023-05-06T03:12:09.262Z,7.82
2023-05-06T03:13:41.365Z,6.20
2023-05-06T03:15:13.395Z,6.68
2023-05-06T03:16:45.303Z,6.90
2023-05-06T03:18:17.199Z,5.97
2023-05-06T03:19:50.678Z,5.95
2023-05-06T03:21:22.927Z,6.28
2023-05-06T03:22:56.736Z,6.25
2023-05-06T03:24:29.246Z,6.75
2023-05-06T03:26:01.163Z,5.78
2023-05-06T03:27:34.054Z,5.38
2023-05-06T03:29:11.792Z,5.15
2023-05-06T03:30:43.858Z,6.57
2023-05-06T03:32:15.730Z,7.47
2023-05-06T03:33:49.365Z,5.70
2023-05-06T03:35:21.529Z,5.53
2023-05-06T03:36:57.986Z,6.57
2023-05-06T03:38:32.064Z,5.90
2023-05-06T03:40:08.266Z,6.05
2023-05-06T03:41:40.290Z,6.55
2023-05-06T03:43:13.072Z,5.85
2023-05-06T03:44:44.921Z,5.30
2023-05-06T03:46:16.989Z,7.53
2023-05-06T03:47:49.046Z,5.15
2023-05-06T03:49:21.888Z,4.97
2023-05-06T03:50:54.110Z,5.68
2023-05-06T03:52:26.577Z,5.80
2023-05-06T03:53:58.644Z,7.85
2023-05-06T03:55:31.233Z,5.68
2023-05-06T03:57:03.375Z,5.05
2023-05-06T03:58:36.050Z,4.80
2023-05-06T04:00:10.671Z,4.80
2023-05-06T04:01:48.016Z,5.10
2023-05-06T04:03:21.060Z,6.90
2023-05-06T04:04:55.631Z,6.55
2023-05-06T04:06:27.526Z,5.22
2023-05-06T04:07:59.436Z,5.15
2023-05-06T04:09:33.169Z,5.03
2023-05-06T04:11:07.956Z,4.88
2023-05-06T04:12:41.513Z,4.88
2023-05-06T04:14:14.516Z,5.72
2023-05-06T04:15:46.391Z,5.60
2023-05-06T04:17:23.590Z,6.90
2023-05-06T04:18:55.705Z,5.60
2023-05-06T04:20:28.465Z,4.43
2023-05-06T04:22:00.296Z,5.45
2023-05-06T04:23:32.757Z,6.18
2023-05-06T04:25:05.340Z,6.70
2023-05-06T04:26:38.062Z,4.88
2023-05-06T04:28:12.425Z,4.85
2023-05-06T04:29:44.336Z,5.05
2023-05-06T04:31:16.707Z,6.13
2023-05-06T04:32:54.710Z,5.30
2023-05-06T04:34:27.965Z,5.25
2023-05-06T04:36:02.257Z,5.68
2023-05-06T04:37:35.687Z,5.55
2023-05-06T04:39:14.872Z,5.22
2023-05-06T04:40:46.881Z,5.28
2023-05-06T04:42:18.775Z,8.00
2023-05-06T04:44:00.900Z,4.88
2023-05-06T04:45:34.674Z,8.05
2023-05-06T04:47:07.215Z,9.00
2023-05-06T04:48:39.194Z,6.45
2023-05-06T04:50:12.137Z,6.82
2023-05-06T04:51:43.961Z,6.80
2023-05-06T04:53:16.161Z,6.65
2023-05-06T04:54:47.997Z,6.70
2023-05-06T04:56:19.909Z,6.47
2023-05-06T04:57:53.057Z,5.93
2023-05-06T04:59:25.048Z,6.22
2023-05-06T05:00:58.200Z,6.10
2023-05-06T05:02:30.157Z,5.90
2023-05-06T05:04:02.277Z,5.82
2023-05-06T05:05:34.918Z,6.55
2023-05-06T05:07:07.740Z,7.28
2023-05-06T05:08:39.864Z,7.40
2023-05-06T05:10:12.573Z,7.15
2023-05-06T05:11:44.634Z,7.00
2023-05-06T05:13:16.519Z,6.97
2023-05-06T05:14:49.791Z,6.82
2023-05-06T05:16:22.336Z,7.13
2023-05-06T05:17:54.514Z,7.10
2023-05-06T05:19:27.885Z,7.82
2023-05-06T05:21:00.357Z,6.88
2023-05-06T05:22:32.769Z,9.18
2023-05-06T05:24:05.514Z,7.07
2023-05-06T05:25:37.430Z,7.25
2023-05-06T05:27:09.261Z,7.82
2023-05-06T05:28:41.373Z,7.53
2023-05-06T05:30:13.574Z,9.20
2023-05-06T05:31:46.636Z,7.70
2023-05-06T05:33:18.724Z,8.00
2023-05-06T05:34:51.153Z,7.70
2023-05-06T05:36:23.826Z,7.80
2023-05-06T05:37:59.196Z,7.35
2023-05-06T05:39:31.121Z,8.82
2023-05-06T05:41:03.524Z,8.27
2023-05-06T05:42:35.432Z,8.38
2023-05-06T05:44:12.398Z,8.00
2023-05-06T05:45:45.034Z,7.97
2023-05-06T05:47:17.045Z,8.40
2023-05-06T05:48:49.461Z,9.50
2023-05-06T05:50:22.862Z,8.20
2023-05-06T05:51:56.269Z,8.65
2023-05-06T05:53:28.446Z,8.88
2023-05-06T05:55:00.769Z,9.07
2023-05-06T05:56:32.646Z,8.25
2023-05-06T05:58:04.599Z,8.15
2023-05-06T05:59:37.508Z,10.07
2023-05-06T06:01:10.468Z,8.68
2023-05-06T06:02:42.570Z,10.20
2023-05-06T06:04:14.665Z,9.00
2023-05-06T06:05:46.905Z,9.00
2023-05-06T06:07:19.249Z,10.98
2023-05-06T06:08:51.908Z,9.65
2023-05-06T06:10:23.892Z,7.88
2023-05-06T06:11:55.782Z,7.97
2023-05-06T06:13:29.024Z,10.82
2023-05-06T06:15:01.246Z,9.07
2023-05-06T06:16:34.084Z,9.50
2023-05-06T06:18:09.010Z,10.20
2023-05-06T06:19:43.399Z,8.18
2023-05-06T06:21:15.260Z,10.77
2023-05-06T06:22:47.427Z,8.77
2023-05-06T06:24:19.557Z,7.85
2023-05-06T06:25:51.385Z,9.57
2023-05-06T06:27:23.705Z,9.27
2023-05-06T06:28:55.994Z,10.05
2023-05-06T06:30:28.041Z,9.43
2023-05-06T06:32:00.042Z,9.00
2023-05-06T06:33:31.957Z,10.40
2023-05-06T06:35:04.016Z,9.18
2023-05-06T06:36:35.978Z,8.15
2023-05-06T06:38:07.804Z,8.05
2023-05-06T06:39:39.646Z,7.80
2023-05-06T06:41:11.650Z,7.55
2023-05-06T06:42:43.486Z,7.88
2023-05-06T06:44:37.219Z,8.20
2023-05-06T06:46:09.124Z,6.90
2023-05-06T06:47:41.487Z,8.85
2023-05-06T06:49:13.349Z,7.75
2023-05-06T06:50:45.375Z,8.00
2023-05-06T06:52:17.176Z,7.15
2023-05-06T06:53:51.509Z,8.00
2023-05-06T06:55:23.404Z,7.50
2023-05-06T06:56:56.498Z,7.63
2023-05-06T06:58:28.568Z,7.93
2023-05-06T07:00:01.043Z,8.63
2023-05-06T07:01:33.197Z,8.23
2023-05-06T07:03:05.200Z,7.85
2023-05-06T07:04:37.139Z,6.93
2023-05-06T07:06:09.051Z,7.70
2023-05-06T07:07:40.925Z,7.65
2023-05-06T07:09:13.512Z,6.82
2023-05-06T07:10:45.334Z,7.05
2023-05-06T07:12:17.385Z,7.07
2023-05-06T07:13:49.175Z,7.03
2023-05-06T07:15:21.060Z,8.30
2023-05-06T07:16:53.099Z,8.60
2023-05-06T07:18:24.996Z,8.45
2023-05-06T07:19:56.937Z,8.52
2023-05-06T07:21:28.790Z,10.55
2023-05-06T07:23:01.261Z,10.93
2023-05-06T07:24:33.141Z,9.18
2023-05-06T07:26:05.055Z,9.98
2023-05-06T07:27:37.235Z,9.30
2023-05-06T07:29:09.073Z,9.60
2023-05-06T07:30:40.917Z,10.10
2023-05-06T07:32:12.969Z,9.75
2023-05-06T07:33:44.759Z,12.50
2023-05-06T07:35:16.744Z,11.82
2023-05-06T07:36:48.764Z,13.13
2023-05-06T07:38:23.904Z,11.27
2023-05-06T07:39:57.040Z,11.57
2023-05-06T07:41:28.909Z,12.15
2023-05-06T07:43:00.781Z,11.88
2023-05-06T07:44:32.667Z,11.25
2023-05-06T07:46:04.946Z,12.80
2023-05-06T07:47:37.048Z,11.35
2023-05-06T07:49:08.955Z,10.40
2023-05-06T07:50:40.818Z,11.38
2023-05-06T07:52:12.696Z,10.85
2023-05-06T07:53:44.619Z,11.77
2023-05-06T07:55:17.148Z,11.77
2023-05-06T07:56:48.989Z,11.20
2023-05-06T07:58:21.034Z,11.20
2023-05-06T07:59:53.364Z,11.77
2023-05-06T08:01:25.706Z,13.43
2023-05-06T08:02:57.651Z,14.73
2023-05-06T08:04:29.698Z,14.15
2023-05-06T08:06:01.608Z,13.20
2023-05-06T08:07:33.623Z,11.10
2023-05-06T08:09:05.593Z,12.52
2023-05-06T08:10:37.462Z,14.38
2023-05-06T08:12:10.039Z,12.63
2023-05-06T08:13:41.899Z,14.48
2023-05-06T08:17:28.605Z,13.95
2023-05-06T08:19:00.449Z,12.73
2023-05-06T08:20:32.283Z,12.88
2023-05-06T08:22:04.176Z,14.88
2023-05-06T08:23:36.056Z,15.15
2023-05-06T08:25:08.599Z,15.73
2023-05-06T08:26:41.315Z,13.82
2023-05-06T08:28:13.188Z,13.52
2023-05-06T08:29:45.087Z,11.27
2023-05-06T08:31:17.112Z,13.38
2023-05-06T08:32:49.343Z,13.10
2023-05-06T08:34:21.502Z,13.57
2023-05-06T08:35:53.364Z,11.55
2023-05-06T08:37:25.247Z,11.20
2023-05-06T08:38:57.168Z,11.52
2023-05-06T08:40:32.810Z,12.77
2023-05-06T08:42:05.769Z,12.77
2023-05-06T08:43:44.664Z,12.40
2023-05-06T08:45:19.943Z,12.85
2023-05-06T08:46:51.909Z,13.52
2023-05-06T08:48:23.777Z,15.43
2023-05-06T08:49:55.724Z,14.70
2023-05-06T08:51:29.692Z,15.23
2023-05-06T08:53:01.998Z,14.73
2023-05-06T08:54:36.054Z,14.57
2023-05-06T08:56:08.971Z,13.32
2023-05-06T08:57:42.621Z,14.15
2023-05-06T08:59:14.565Z,13.55
2023-05-06T09:00:47.063Z,14.43
2023-05-06T09:02:18.923Z,15.52
2023-05-06T09:03:51.637Z,14.70
2023-05-06T09:05:23.502Z,12.45
2023-05-06T09:06:58.043Z,13.60
2023-05-06T09:08:29.959Z,14.80
2023-05-06T09:10:06.739Z,15.70
2023-05-06T09:11:39.137Z,17.67
2023-05-06T09:13:14.233Z,15.60
2023-05-06T09:14:50.412Z,14.40
2023-05-06T09:16:29.665Z,14.98
2023-05-06T09:18:01.550Z,14.80
2023-05-06T09:19:38.249Z,14.00
2023-05-06T09:21:10.071Z,15.45
2023-05-06T09:22:41.916Z,13.93
2023-05-06T09:24:15.475Z,16.55
2023-05-06T09:25:47.880Z,14.50
2023-05-06T09:27:21.832Z,15.98
2023-05-06T09:29:02.629Z,14.65
2023-05-06T09:30:39.323Z,15.98
2023-05-06T09:32:14.707Z,15.82
2023-05-06T09:33:46.542Z,15.95
2023-05-06T09:35:18.331Z,15.80
2023-05-06T09:36:52.609Z,15.40
2023-05-06T09:38:24.842Z,13.20
2023-05-06T09:39:58.780Z,12.77
2023-05-06T09:41:31.313Z,10.88
2023-05-06T09:43:04.234Z,11.20
2023-05-06T09:44:36.150Z,12.63
2023-05-06T09:46:09.097Z,13.07
2023-05-06T09:47:41.852Z,11.68
2023-05-06T09:49:15.332Z,10.70
2023-05-06T09:50:47.620Z,13.85
2023-05-06T09:52:20.998Z,12.40
2023-05-06T09:53:52.841Z,12.75
2023-05-06T09:55:27.341Z,12.90
2023-05-06T09:57:01.022Z,13.25
2023-05-06T09:58:34.825Z,13.82
2023-05-06T10:00:09.512Z,13.40
2023-05-06T10:01:47.320Z,12.27
2023-05-06T10:03:20.636Z,11.25
2023-05-06T10:04:56.149Z,11.73
2023-05-06T10:06:28.317Z,12.27
2023-05-06T10:08:01.561Z,13.38
2023-05-06T10:09:33.818Z,12.80
2023-05-06T10:11:06.467Z,12.27
2023-05-06T10:12:38.577Z,13.05
2023-05-06T10:14:11.302Z,10.45
2023-05-06T10:15:46.681Z,11.23
2023-05-06T10:17:19.034Z,14.25
2023-05-06T10:18:55.689Z,12.48
2023-05-06T10:20:31.576Z,13.85
2023-05-06T10:22:15.346Z,11.75
2023-05-06T10:24:02.340Z,12.45
2023-05-06T10:25:38.591Z,11.82
2023-05-06T10:27:12.377Z,12.60
2023-05-06T10:28:47.163Z,11.05
2023-05-06T10:30:19.414Z,11.57
2023-05-06T10:31:55.237Z,11.77
2023-05-06T10:33:28.740Z,11.65
2023-05-06T10:35:09.948Z,14.30
2023-05-06T10:36:44.066Z,14.43
2023-05-06T10:38:30.384Z,11.07
2023-05-06T10:40:04.883Z,9.88
2023-05-06T10:41:37.484Z,9.65
2023-05-06T10:43:29.347Z,11.77
2023-05-06T10:45:04.185Z,11.27
2023-05-06T10:46:58.912Z,10.65
2023-05-06T10:48:31.775Z,11.65
2023-05-06T10:50:20.324Z,11.90
2023-05-06T10:52:17.175Z,11.70
2023-05-06T10:54:25.089Z,10.20
2023-05-06T10:56:09.158Z,12.30
2023-05-06T10:57:41.524Z,11.80
2023-05-06T10:59:13.355Z,9.85
2023-05-06T11:00:55.623Z,10.63
2023-05-06T11:02:30.365Z,10.38
2023-05-06T11:04:07.819Z,9.15
2023-05-06T11:05:52.572Z,8.93
2023-05-06T11:07:24.850Z,8.82
2023-05-06T11:08:58.441Z,9.32
2023-05-06T11:10:34.138Z,9.75
2023-05-06T11:12:07.013Z,9.48
2023-05-06T11:13:42.250Z,9.10
2023-05-06T11:15:40.726Z,9.20
2023-05-06T11:17:33.871Z,9.05
2023-05-06T11:19:05.956Z,7.72
2023-05-06T11:20:37.788Z,9.15
2023-05-06T11:22:29.526Z,8.68
2023-05-06T11:24:01.270Z,6.95
2023-05-06T11:25:43.015Z,6.78
2023-05-06T11:27:17.272Z,8.60
2023-05-06T11:28:50.351Z,8.20
2023-05-06T11:30:22.173Z,7.50
2023-05-06T11:31:54.344Z,8.93
2023-05-06T11:33:32.166Z,6.80
2023-05-06T11:35:05.306Z,6.38
2023-05-06T11:36:45.461Z,7.50
2023-05-06T11:38:17.280Z,8.13
2023-05-06T11:39:49.339Z,7.88
2023-05-06T11:41:23.094Z,8.38
2023-05-06T11:42:55.055Z,7.60
2023-05-06T11:44:29.667Z,8.43
2023-05-06T11:46:01.585Z,7.70
2023-05-06T11:47:33.444Z,8.00
2023-05-06T11:49:05.543Z,8.13
2023-05-06T11:50:37.366Z,9.18
2023-05-06T11:52:10.939Z,8.57
2023-05-06T11:53:43.094Z,9.75
2023-05-06T11:55:14.927Z,9.55
2023-05-06T11:56:49.195Z,10.48
2023-05-06T11:58:26.764Z,9.90
2023-05-06T11:59:58.706Z,9.43
2023-05-06T12:01:30.488Z,10.90
2023-05-06T12:03:04.073Z,10.93
2023-05-06T12:04:41.766Z,10.55
2023-05-06T12:06:13.638Z,10.05
2023-05-06T12:07:45.646Z,11.02
2023-05-06T12:09:17.736Z,10.95
2023-05-06T12:10:51.803Z,9.57
2023-05-06T12:12:24.697Z,11.40
2023-05-06T12:13:56.966Z,9.88
2023-05-06T12:15:29.858Z,10.57
2023-05-06T12:17:01.746Z,10.85
2023-05-06T12:18:33.720Z,9.23
2023-05-06T12:20:06.711Z,9.98
2023-05-06T12:21:39.366Z,11.35
2023-05-06T12:23:12.499Z,8.70
2023-05-06T12:24:45.157Z,9.15
2023-05-06T12:26:16.945Z,10.50
2023-05-06T12:27:48.816Z,10.38
2023-05-06T12:29:20.702Z,8.82
2023-05-06T12:30:52.967Z,8.60
2023-05-06T12:32:24.838Z,8.35
2023-05-06T12:33:58.107Z,9.02
2023-05-06T12:35:32.361Z,8.15
2023-05-06T12:37:05.118Z,8.23
2023-05-06T12:38:36.936Z,9.30
2023-05-06T12:40:17.288Z,8.75
2023-05-06T12:41:49.087Z,9.17
2023-05-06T12:43:29.703Z,8.00
2023-05-06T12:45:13.912Z,7.15
2023-05-06T12:46:52.964Z,9.57
2023-05-06T12:48:24.790Z,7.22
2023-05-06T12:50:01.224Z,7.97
2023-05-06T12:51:33.215Z,8.45
2023-05-06T12:53:06.747Z,9.00
2023-05-06T12:54:38.712Z,7.82
2023-05-06T12:56:10.576Z,7.90
2023-05-06T12:57:42.378Z,9.20
2023-05-06T12:59:14.173Z,8.45
2023-05-06T13:00:46.211Z,7.90
2023-05-06T13:02:18.410Z,8.57
2023-05-06T13:03:51.268Z,7.78
2023-05-06T13:05:23.359Z,7.72
2023-05-06T13:06:55.989Z,8.63
2023-05-06T13:08:28.518Z,7.93
2023-05-06T13:10:00.338Z,9.75
2023-05-06T13:11:32.268Z,7.18
2023-05-06T13:13:04.180Z,7.47
2023-05-06T13:14:38.460Z,7.35
2023-05-06T13:16:12.095Z,9.95
2023-05-06T13:17:44.006Z,8.02
2023-05-06T13:20:52.012Z,8.43
2023-05-06T13:22:24.565Z,7.88
2023-05-06T13:23:56.378Z,8.23
2023-05-06T13:25:28.199Z,7.60
2023-05-06T13:27:01.350Z,7.50
2023-05-06T13:28:35.576Z,6.90
2023-05-06T13:30:08.980Z,9.48
2023-05-06T13:31:40.969Z,10.77
2023-05-06T13:33:12.756Z,9.35
2023-05-06T13:34:44.593Z,9.60
2023-05-06T13:36:16.407Z,9.35
2023-05-06T13:37:48.225Z,9.50
2023-05-06T13:39:21.063Z,8.88
2023-05-06T13:40:54.037Z,8.98
2023-05-06T13:42:25.839Z,10.38
2023-05-06T13:43:57.640Z,13.07
2023-05-06T13:45:29.520Z,9.18
2023-05-06T13:47:01.407Z,12.75
2023-05-06T13:48:33.241Z,10.45
2023-05-06T13:50:06.002Z,10.13
2023-05-06T13:51:37.921Z,12.80
2023-05-06T13:53:11.074Z,12.15
2023-05-06T13:54:42.943Z,11.95
2023-05-06T13:56:14.736Z,13.23
2023-05-06T13:57:46.564Z,14.10
2023-05-06T13:59:18.353Z,14.57
2023-05-06T14:00:50.764Z,16.23
2023-05-06T14:02:22.592Z,11.45
2023-05-06T14:03:54.380Z,13.00
2023-05-06T14:05:26.718Z,13.18
2023-05-06T14:06:59.379Z,11.32
2023-05-06T14:08:32.903Z,13.57
2023-05-06T14:10:05.140Z,11.65
2023-05-06T14:11:36.976Z,12.93
2023-05-06T14:13:08.771Z,12.07
2023-05-06T14:14:40.620Z,12.82
2023-05-06T14:16:12.584Z,13.73
2023-05-06T14:17:44.411Z,11.30
2023-05-06T14:19:16.249Z,14.60
2023-05-06T14:20:48.015Z,12.38
2023-05-06T14:22:19.816Z,12.77
2023-05-06T14:23:51.607Z,13.70
2023-05-06T14:25:27.048Z,12.50
2023-05-06T14:26:59.053Z,14.38
2023-05-06T14:28:31.299Z,12.82
2023-05-06T14:30:08.512Z,15.32
2023-05-06T14:31:41.415Z,11.95
2023-05-06T14:33:13.254Z,13.85
2023-05-06T14:34:45.078Z,12.32
2023-05-06T14:36:20.204Z,13.95
2023-05-06T14:37:52.138Z,14.75
2023-05-06T14:39:23.961Z,11.55
2023-05-06T14:40:56.700Z,11.60
2023-05-06T14:42:30.769Z,12.90
2023-05-06T14:44:02.589Z,13.70
2023-05-06T14:45:34.679Z,12.93
2023-05-06T14:47:06.497Z,13.43
2023-05-06T14:48:38.295Z,11.00
2023-05-06T14:50:11.226Z,11.38
2023-05-06T14:51:43.676Z,10.95
2023-05-06T14:53:15.497Z,12.40
2023-05-06T14:54:47.997Z,13.63
2023-05-06T14:56:19.833Z,15.02
2023-05-06T14:57:51.740Z,13.02
2023-05-06T14:59:23.584Z,17.33
2023-05-06T15:00:55.494Z,16.00
2023-05-06T15:02:27.419Z,14.23
2023-05-06T15:03:59.274Z,16.80
2023-05-06T15:05:31.598Z,14.50
2023-05-06T15:07:04.102Z,13.68
2023-05-06T15:08:35.898Z,14.20
2023-05-06T15:10:08.098Z,14.05
2023-05-06T15:11:39.895Z,14.30
2023-05-06T15:13:11.832Z,15.80
2023-05-06T15:14:43.857Z,13.80
2023-05-06T15:16:15.728Z,13.30
2023-05-06T15:17:47.584Z,13.52
2023-05-06T15:19:19.404Z,13.27
2023-05-06T15:20:52.586Z,14.30
2023-05-06T15:22:24.379Z,15.43
2023-05-06T15:23:57.016Z,15.68
2023-05-06T15:25:35.560Z,14.93
2023-05-06T15:27:08.259Z,11.98
2023-05-06T15:28:40.109Z,13.77
2023-05-06T15:30:12.161Z,14.82
2023-05-06T15:31:44.999Z,12.35
2023-05-06T15:33:16.929Z,13.55
2023-05-06T15:34:48.754Z,13.30
2023-05-06T15:36:20.590Z,13.55
2023-05-06T15:37:58.857Z,14.57
2023-05-06T15:39:37.105Z,13.35
2023-05-06T15:41:09.721Z,11.77
2023-05-06T15:42:41.577Z,13.15
2023-05-06T15:45:47.783Z,12.82
2023-05-06T15:47:19.792Z,14.32
2023-05-06T15:49:00.107Z,13.85
2023-05-06T15:50:43.456Z,12.35
2023-05-06T15:52:15.311Z,12.45
2023-05-06T15:53:47.376Z,12.43
2023-05-06T15:55:19.572Z,11.32
2023-05-06T15:56:51.448Z,13.20
2023-05-06T15:58:23.945Z,12.73
2023-05-06T15:59:55.827Z,12.80
2023-05-06T16:01:54.046Z,10.32
2023-05-06T16:03:19.443Z,12.35
2023-05-06T16:04:51.594Z,10.80
2023-05-06T16:06:23.482Z,13.02
2023-05-06T16:07:56.109Z,11.63
2023-05-06T16:09:27.952Z,10.45
2023-05-06T16:10:59.947Z,12.10
2023-05-06T16:12:32.908Z,12.90
2023-05-06T16:14:04.722Z,12.60
2023-05-06T16:15:36.535Z,13.05
2023-05-06T16:17:08.439Z,12.98
2023-05-06T16:18:40.286Z,13.90
2023-05-06T16:20:13.028Z,14.75
2023-05-06T16:21:45.052Z,13.23
2023-05-06T16:23:16.869Z,13.13
2023-05-06T16:24:48.692Z,12.93
2023-05-06T16:26:20.499Z,14.15
2023-05-06T16:27:52.398Z,14.30
2023-05-06T16:29:24.280Z,13.07
2023-05-06T16:30:56.143Z,13.13
2023-05-06T16:32:28.003Z,11.52
2023-05-06T16:33:59.904Z,10.20
2023-05-06T16:35:32.604Z,13.25
2023-05-06T16:37:05.542Z,11.15
2023-05-06T16:38:37.546Z,10.23
2023-05-06T16:40:10.741Z,10.50
2023-05-06T16:41:42.746Z,10.65
2023-05-06T16:43:14.542Z,9.18
2023-05-06T16:44:46.675Z,10.52
2023-05-06T16:46:18.666Z,11.73
2023-05-06T16:47:50.729Z,12.02
2023-05-06T16:49:22.611Z,10.65
2023-05-06T16:50:54.412Z,10.88
2023-05-06T16:52:26.543Z,13.73
2023-05-06T16:55:30.266Z,14.23
2023-05-06T16:57:03.584Z,12.93
2023-05-06T16:58:35.848Z,12.40
2023-05-06T17:00:08.624Z,11.32
2023-05-06T17:01:40.644Z,11.38
2023-05-06T17:03:12.592Z,12.95
2023-05-06T17:04:44.568Z,12.45
2023-05-06T17:06:16.389Z,12.77
2023-05-06T17:07:48.441Z,15.55
2023-05-06T17:09:21.539Z,12.10
2023-05-06T17:10:53.337Z,11.82
2023-05-06T17:12:26.966Z,11.73
2023-05-06T17:13:58.830Z,14.00
2023-05-06T17:15:31.310Z,13.40
2023-05-06T17:17:05.516Z,13.75
2023-05-06T17:18:37.574Z,13.50
2023-05-06T17:20:09.831Z,12.48
2023-05-06T17:21:41.982Z,12.75
2023-05-06T17:23:13.947Z,12.38
2023-05-06T17:24:46.012Z,12.65
2023-05-06T17:26:18.602Z,13.68
2023-05-06T17:27:50.384Z,13.75
2023-05-06T17:29:22.367Z,13.60
2023-05-06T17:30:54.451Z,12.57
2023-05-06T17:32:26.425Z,12.10
2023-05-06T17:33:58.234Z,15.15
2023-05-06T17:35:30.025Z,13.60
2023-05-06T17:37:03.848Z,12.95
2023-05-06T17:38:35.616Z,15.60
2023-05-06T17:40:08.139Z,13.55
2023-05-06T17:41:40.144Z,12.48
2023-05-06T17:43:11.986Z,11.88
2023-05-06T17:44:43.860Z,11.93
2023-05-06T17:46:17.564Z,13.73
2023-05-06T17:47:51.327Z,11.43
2023-05-06T17:49:23.469Z,14.57
2023-05-06T17:51:01.038Z,14.98
2023-05-06T17:52:32.967Z,14.85
2023-05-06T17:54:04.826Z,13.98
2023-05-06T17:55:36.628Z,14.35
2023-05-06T17:57:08.441Z,15.35
2023-05-06T17:58:40.269Z,15.82
2023-05-06T18:00:12.669Z,14.98
2023-05-06T18:01:46.686Z,12.88
2023-05-06T18:03:25.599Z,15.88
2023-05-06T18:04:57.681Z,14.15
2023-05-06T18:06:29.702Z,16.20
2023-05-06T18:08:01.554Z,14.60
2023-05-06T18:09:33.375Z,13.27
2023-05-06T18:11:05.525Z,12.70
2023-05-06T18:12:37.686Z,12.20
2023-05-06T18:14:09.605Z,13.20
2023-05-06T18:15:41.411Z,12.55
2023-05-06T18:17:13.234Z,9.55
2023-05-06T18:18:45.049Z,11.75
2023-05-06T18:20:16.990Z,12.82
2023-05-06T18:21:48.793Z,11.45
2023-05-06T18:23:20.595Z,10.88
2023-05-06T18:24:55.466Z,11.30
2023-05-06T18:26:43.251Z,12.23
2023-05-06T18:28:17.073Z,11.95
2023-05-06T18:29:48.929Z,11.38
2023-05-06T18:31:20.744Z,10.57
2023-05-06T18:32:54.515Z,11.77
2023-05-06T18:34:28.164Z,11.27
2023-05-06T18:36:00.024Z,13.65
2023-05-06T18:37:31.853Z,11.45
2023-05-06T18:39:04.883Z,14.27
2023-05-06T18:40:36.834Z,10.25
2023-05-06T18:42:09.049Z,11.40
2023-05-06T18:43:41.114Z,10.80
2023-05-06T18:45:13.210Z,11.85
2023-05-06T18:46:45.297Z,11.85
2023-05-06T18:48:17.101Z,10.68
2023-05-06T18:49:48.965Z,9.80
2023-05-06T18:51:21.632Z,11.50
2023-05-06T18:52:55.147Z,12.70
2023-05-06T18:54:26.958Z,10.77
2023-05-06T18:55:58.752Z,11.18
2023-05-06T18:57:30.777Z,10.82
2023-05-06T18:59:02.588Z,10.13
2023-05-06T19:00:34.482Z,10.38
2023-05-06T19:02:07.039Z,9.98
2023-05-06T19:03:38.937Z,9.25
2023-05-06T19:05:11.962Z,9.18
2023-05-06T19:06:43.954Z,9.52
2023-05-06T19:08:16.369Z,8.50
2023-05-06T19:09:48.757Z,7.85
2023-05-06T19:11:21.314Z,7.82
2023-05-06T19:12:53.115Z,7.78
2023-05-06T19:14:25.583Z,9.02
2023-05-06T19:15:57.499Z,7.93
2023-05-06T19:17:29.337Z,8.75
2023-05-06T19:19:02.988Z,7.93
2023-05-06T19:20:34.890Z,8.93
2023-05-06T19:22:06.709Z,9.57
2023-05-06T19:23:38.634Z,7.55
2023-05-06T19:25:11.329Z,8.45
2023-05-06T19:26:43.270Z,8.45
2023-05-06T19:28:15.077Z,8.55
2023-05-06T19:29:48.412Z,7.82
2023-05-06T19:31:20.352Z,7.75
2023-05-06T19:32:52.524Z,8.50
2023-05-06T19:34:25.757Z,8.20
2023-05-06T19:35:57.574Z,7.43
2023-05-06T19:37:30.458Z,7.40
2023-05-06T19:39:02.931Z,6.22
2023-05-06T19:40:35.662Z,6.63
2023-05-06T19:42:07.910Z,6.72
2023-05-06T19:43:45.373Z,7.13
2023-05-06T19:45:19.194Z,5.97
2023-05-06T19:46:56.467Z,7.45
2023-05-06T19:48:28.323Z,6.03
2023-05-06T19:50:00.230Z,7.18
2023-05-06T19:51:32.558Z,6.22
2023-05-06T19:53:04.395Z,6.25
2023-05-06T19:54:36.391Z,6.13
2023-05-06T19:56:12.771Z,6.97
2023-05-06T19:57:45.002Z,6.68
2023-05-06T19:59:17.806Z,6.95
2023-05-06T20:00:49.801Z,7.65
2023-05-06T20:02:21.611Z,6.80
2023-05-06T20:03:55.268Z,7.78
2023-05-06T20:05:31.628Z,7.78
2023-05-06T20:07:03.439Z,7.82
2023-05-06T20:08:35.540Z,6.95
2023-05-06T20:10:09.823Z,7.05
2023-05-06T20:11:42.437Z,6.60
2023-05-06T20:13:18.851Z,6.35
2023-05-06T20:14:50.888Z,7.07
2023-05-06T20:16:26.285Z,8.05
2023-05-06T20:17:58.197Z,8.55
2023-05-06T20:19:31.350Z,7.70
2023-05-06T20:21:03.181Z,8.20
2023-05-06T20:22:36.640Z,7.03
2023-05-06T20:24:08.669Z,7.30
2023-05-06T20:25:40.838Z,6.97
2023-05-06T20:27:12.699Z,7.20
2023-05-06T20:28:44.573Z,8.45
2023-05-06T20:30:16.500Z,6.40
2023-05-06T20:31:48.570Z,8.18
2023-05-06T20:33:20.708Z,6.28
2023-05-06T20:34:52.513Z,7.38
2023-05-06T20:36:24.512Z,7.55